Risingdale, Massachusetts
Current Conditions -  °F | °C
As of 10:54 AM on Saturday 25 Oct 2014 (Local Time) from KPSF Reporting Station
Clear Clear  
Wind Chill: 51°   Ceiling: Unl
Heat Index: 51°   Visibility: 10mi
Dew Point: 41°   Wind: 10mph
Humidity: 68%   Direction: 260°W
Pressure: 29.77"   Gusts: NA
Location:  42.1779°N, 73.3332°W
Report Text: KPSF 251454Z AUTO 26009KT 10SM CLR 11/05 A2977 RMK AO2 SLP075 T01060050 58010
Loading
Personal Weather Stations






























Interactive Weather Map
Tropical Storm Tracking
New forecast layout! Learn more

10-Day Weather Forecast

Advertisements
Track Severe Weather on mobile